createdAt,value
2017-07-24T00:00:05.771Z,18.40
2017-07-24T00:02:33.787Z,18.40
2017-07-24T00:05:02.106Z,18.30
2017-07-24T00:07:29.674Z,18.30
2017-07-24T00:09:57.288Z,18.30
2017-07-24T00:12:24.862Z,18.30
2017-07-24T00:14:52.896Z,18.30
2017-07-24T00:17:21.414Z,18.30
2017-07-24T00:19:48.982Z,18.40
2017-07-24T00:22:17.313Z,18.30
2017-07-24T00:24:45.968Z,18.30
2017-07-24T00:27:13.882Z,18.30
2017-07-24T00:29:42.143Z,18.20
2017-07-24T00:32:09.693Z,18.10
2017-07-24T00:34:37.949Z,18.10
2017-07-24T00:37:06.273Z,18.10
2017-07-24T00:39:34.396Z,18.00
2017-07-24T00:42:02.793Z,18.00
2017-07-24T00:44:30.380Z,18.00
2017-07-24T00:46:57.995Z,18.00
2017-07-24T00:49:25.564Z,18.00
2017-07-24T00:51:56.229Z,17.90
2017-07-24T00:54:24.456Z,17.80
2017-07-24T00:56:52.846Z,17.80
2017-07-24T00:59:20.470Z,17.70
2017-07-24T01:01:48.795Z,17.60
2017-07-24T01:04:17.604Z,17.60
2017-07-24T01:06:45.142Z,17.50
2017-07-24T01:09:12.693Z,17.50
2017-07-24T01:11:41.780Z,17.20
2017-07-24T01:14:09.346Z,17.20
2017-07-24T01:16:37.728Z,17.10
2017-07-24T01:19:06.194Z,17.00
2017-07-24T01:21:33.780Z,16.90
2017-07-24T01:24:01.389Z,16.90
2017-07-24T01:26:29.803Z,16.80
2017-07-24T01:28:58.108Z,16.80
2017-07-24T01:31:25.744Z,16.80
2017-07-24T01:33:53.296Z,16.80
2017-07-24T01:36:20.902Z,16.80
2017-07-24T01:38:49.132Z,16.80
2017-07-24T01:41:17.066Z,16.90
2017-07-24T01:43:45.432Z,17.00
2017-07-24T01:46:13.070Z,17.00
2017-07-24T01:48:40.696Z,17.00
2017-07-24T01:51:08.285Z,17.00
2017-07-24T01:53:36.285Z,17.00
2017-07-24T01:56:04.383Z,17.00
2017-07-24T01:58:31.931Z,17.00
2017-07-24T02:01:00.328Z,16.70
2017-07-24T02:03:27.884Z,16.70
2017-07-24T02:05:56.405Z,16.60
2017-07-24T02:08:26.318Z,16.40
2017-07-24T02:10:53.894Z,16.40
2017-07-24T02:13:21.516Z,16.30
2017-07-24T02:15:49.113Z,16.20
2017-07-24T02:18:17.120Z,16.20
2017-07-24T02:20:44.685Z,16.10
2017-07-24T02:23:12.268Z,16.00
2017-07-24T02:25:40.375Z,16.00
2017-07-24T02:28:08.058Z,16.00
2017-07-24T02:30:36.002Z,16.00
2017-07-24T02:33:03.676Z,16.00
2017-07-24T02:35:31.261Z,16.00
2017-07-24T02:37:58.883Z,16.00
2017-07-24T02:40:26.489Z,15.90
2017-07-24T02:42:54.977Z,15.90
2017-07-24T02:45:22.526Z,16.00
2017-07-24T02:47:50.630Z,16.00
2017-07-24T02:50:18.250Z,15.90
2017-07-24T02:52:46.051Z,16.00
2017-07-24T02:55:15.902Z,16.00
2017-07-24T02:57:43.506Z,16.00
2017-07-24T03:00:11.097Z,16.00
2017-07-24T03:02:40.025Z,16.00
2017-07-24T03:05:07.567Z,15.90
2017-07-24T03:07:35.475Z,16.00
2017-07-24T03:10:03.510Z,16.00
2017-07-24T03:12:31.102Z,16.10
2017-07-24T03:14:58.704Z,16.10
2017-07-24T03:17:26.285Z,16.20
2017-07-24T03:19:54.147Z,16.20
2017-07-24T03:22:21.728Z,16.30
2017-07-24T03:24:49.291Z,16.30
2017-07-24T03:27:16.886Z,16.30
2017-07-24T03:29:44.508Z,16.30
2017-07-24T03:32:12.356Z,16.30
2017-07-24T03:34:39.920Z,16.40
2017-07-24T03:37:07.468Z,16.40
2017-07-24T03:39:35.111Z,16.40
2017-07-24T03:42:02.882Z,16.40
2017-07-24T03:44:31.423Z,16.50
2017-07-24T03:46:59.825Z,16.60
2017-07-24T03:49:27.465Z,16.60
2017-07-24T03:51:55.091Z,16.60
2017-07-24T03:54:22.650Z,16.60
2017-07-24T03:56:51.166Z,16.60
2017-07-24T03:59:20.266Z,16.70
2017-07-24T04:01:47.862Z,16.70
2017-07-24T04:04:15.485Z,16.80
2017-07-24T04:06:43.281Z,16.90
2017-07-24T04:09:11.400Z,16.90
2017-07-24T04:11:39.732Z,17.00
2017-07-24T04:14:07.308Z,17.00
2017-07-24T04:16:34.929Z,17.10
2017-07-24T04:19:02.922Z,17.20
2017-07-24T04:21:30.928Z,17.30
2017-07-24T04:23:58.489Z,17.50
2017-07-24T04:26:26.058Z,17.60
2017-07-24T04:28:54.466Z,17.80
2017-07-24T04:31:22.023Z,17.90
2017-07-24T04:33:50.550Z,18.10
2017-07-24T04:36:18.132Z,18.40
2017-07-24T04:38:46.218Z,18.70
2017-07-24T04:41:13.885Z,19.00
2017-07-24T04:43:41.462Z,19.30
2017-07-24T04:46:09.466Z,19.90
2017-07-24T04:48:37.322Z,21.00
2017-07-24T04:51:04.963Z,22.10
2017-07-24T04:53:32.568Z,22.50
2017-07-24T04:56:00.124Z,22.90
2017-07-24T04:58:28.526Z,23.20
2017-07-24T05:00:56.246Z,23.70
2017-07-24T05:03:23.855Z,24.30
2017-07-24T05:05:52.077Z,25.40
2017-07-24T05:08:20.178Z,25.90
2017-07-24T05:10:48.148Z,26.50
2017-07-24T05:13:15.739Z,27.60
2017-07-24T05:15:43.328Z,28.70
2017-07-24T05:18:10.925Z,29.50
2017-07-24T05:20:38.483Z,30.30
2017-07-24T05:23:06.488Z,31.30
2017-07-24T05:25:34.822Z,32.10
2017-07-24T05:28:02.586Z,32.10
2017-07-24T05:30:30.191Z,32.40
2017-07-24T05:32:57.794Z,33.20
2017-07-24T05:35:25.956Z,34.00
2017-07-24T05:37:53.482Z,34.90
2017-07-24T05:40:21.844Z,34.90
2017-07-24T05:42:49.465Z,34.90
2017-07-24T05:45:17.053Z,34.50
2017-07-24T05:47:44.983Z,34.20
2017-07-24T05:50:12.564Z,34.30
2017-07-24T05:52:40.133Z,34.30
2017-07-24T05:55:07.762Z,34.20
2017-07-24T05:57:35.375Z,34.10
2017-07-24T06:00:04.062Z,33.20
2017-07-24T06:02:31.633Z,33.10
2017-07-24T06:04:59.200Z,32.40
2017-07-24T06:07:27.616Z,32.80
2017-07-24T06:09:55.209Z,32.80
2017-07-24T06:12:23.291Z,33.10
2017-07-24T06:14:50.871Z,32.90
2017-07-24T06:17:19.196Z,31.80
2017-07-24T06:19:46.897Z,31.80
2017-07-24T06:22:14.459Z,30.90
2017-07-24T06:24:43.447Z,29.40
2017-07-24T06:27:11.278Z,29.30
2017-07-24T06:29:38.849Z,29.60
2017-07-24T06:32:06.542Z,31.00
2017-07-24T06:34:34.900Z,31.90
2017-07-24T06:37:02.877Z,31.90
2017-07-24T06:39:30.475Z,32.20
2017-07-24T06:41:58.045Z,32.10
2017-07-24T06:44:25.652Z,32.10
2017-07-24T06:46:53.289Z,32.40
2017-07-24T06:49:21.177Z,32.70
2017-07-24T06:51:48.774Z,32.90
2017-07-24T06:54:16.345Z,33.10
2017-07-24T06:56:43.967Z,33.10
2017-07-24T06:59:11.592Z,33.00
2017-07-24T07:01:39.500Z,33.30
2017-07-24T07:04:07.074Z,33.40
2017-07-24T07:06:34.710Z,33.70
2017-07-24T07:09:03.553Z,33.80
2017-07-24T07:11:31.120Z,33.70
2017-07-24T07:13:59.056Z,33.30
2017-07-24T07:16:27.400Z,33.50
2017-07-24T07:18:55.008Z,33.40
2017-07-24T07:21:23.537Z,33.90
2017-07-24T07:23:51.122Z,33.90
2017-07-24T07:26:19.813Z,34.20
2017-07-24T07:28:47.473Z,34.20
2017-07-24T07:31:15.089Z,34.00
2017-07-24T07:33:42.693Z,33.50
2017-07-24T07:36:10.261Z,33.20
2017-07-24T07:38:39.128Z,33.10
2017-07-24T07:41:06.671Z,33.10
2017-07-24T07:43:34.260Z,32.60
2017-07-24T07:46:02.625Z,32.10
2017-07-24T07:48:30.213Z,32.10
2017-07-24T07:50:58.264Z,31.70
2017-07-24T07:53:25.856Z,31.50
2017-07-24T07:55:53.457Z,31.20
2017-07-24T07:58:21.047Z,30.80
2017-07-24T08:00:48.614Z,30.30
2017-07-24T08:03:16.581Z,30.40
2017-07-24T08:05:44.156Z,30.40
2017-07-24T08:08:11.728Z,30.60
2017-07-24T08:10:39.352Z,30.60
2017-07-24T08:13:06.917Z,30.50
2017-07-24T08:15:34.777Z,30.20
2017-07-24T08:18:02.383Z,30.00
2017-07-24T08:20:30.015Z,29.90
2017-07-24T08:22:58.423Z,29.40
2017-07-24T08:25:25.982Z,29.40
2017-07-24T08:27:54.036Z,29.00
2017-07-24T08:30:22.348Z,28.20
2017-07-24T08:32:49.952Z,28.20
2017-07-24T08:35:18.319Z,28.10
2017-07-24T08:37:45.871Z,28.10
2017-07-24T08:40:13.756Z,28.10
2017-07-24T08:42:41.381Z,28.10
2017-07-24T08:45:08.980Z,28.10
2017-07-24T08:47:36.642Z,28.10
2017-07-24T08:50:04.246Z,28.20
2017-07-24T08:52:32.319Z,28.30
2017-07-24T08:55:00.093Z,28.30
2017-07-24T08:57:27.798Z,28.40
2017-07-24T08:59:55.372Z,28.40
2017-07-24T09:02:22.943Z,28.20
2017-07-24T09:04:51.030Z,27.80
2017-07-24T09:07:18.606Z,27.70
2017-07-24T09:09:46.216Z,27.60
2017-07-24T09:12:13.889Z,27.50
2017-07-24T09:14:41.472Z,27.40
2017-07-24T09:17:09.509Z,27.30
2017-07-24T09:19:37.071Z,27.30
2017-07-24T09:22:04.669Z,27.20
2017-07-24T09:24:32.362Z,27.30
2017-07-24T09:26:59.990Z,27.30
2017-07-24T09:29:28.851Z,27.40
2017-07-24T09:31:57.194Z,27.30
2017-07-24T09:34:24.767Z,27.30
2017-07-24T09:36:52.420Z,27.30
2017-07-24T09:39:20.675Z,27.20
2017-07-24T09:41:48.776Z,27.30
2017-07-24T09:44:16.401Z,27.40
2017-07-24T09:46:44.003Z,27.60
2017-07-24T09:49:11.637Z,27.90
2017-07-24T09:51:39.509Z,28.20
2017-07-24T09:54:07.844Z,28.40
2017-07-24T09:56:35.450Z,28.60
2017-07-24T09:59:02.996Z,28.60
2017-07-24T10:01:30.625Z,28.60
2017-07-24T10:03:58.208Z,28.60
2017-07-24T10:06:26.233Z,28.50
2017-07-24T10:08:54.556Z,28.10
2017-07-24T10:11:22.167Z,28.10
2017-07-24T10:13:49.811Z,28.10
2017-07-24T10:16:17.387Z,28.10
2017-07-24T10:18:45.355Z,28.00
2017-07-24T10:21:13.728Z,28.00
2017-07-24T10:23:41.292Z,28.00
2017-07-24T10:26:08.885Z,28.10
2017-07-24T10:28:36.467Z,28.10
2017-07-24T10:31:04.353Z,28.20
2017-07-24T10:33:31.940Z,28.20
2017-07-24T10:35:59.501Z,28.30
2017-07-24T10:38:27.114Z,28.30
2017-07-24T10:40:54.706Z,28.30
2017-07-24T10:43:22.783Z,28.30
2017-07-24T10:45:50.328Z,28.30
2017-07-24T10:48:17.948Z,28.50
2017-07-24T10:50:45.592Z,28.60
2017-07-24T10:53:14.007Z,28.80
2017-07-24T10:55:42.130Z,28.80
2017-07-24T10:58:10.468Z,29.00
2017-07-24T11:00:38.031Z,29.00
2017-07-24T11:03:05.660Z,29.00
2017-07-24T11:05:33.237Z,28.80
2017-07-24T11:08:01.244Z,28.50
2017-07-24T11:10:28.790Z,28.40
2017-07-24T11:12:56.335Z,28.40
2017-07-24T11:15:23.935Z,28.40
2017-07-24T11:17:51.511Z,28.30
2017-07-24T11:20:20.120Z,28.50
2017-07-24T11:22:47.700Z,28.50
2017-07-24T11:25:15.259Z,28.50
2017-07-24T11:27:42.867Z,28.70
2017-07-24T11:30:10.431Z,28.70
2017-07-24T11:32:39.098Z,28.70
2017-07-24T11:35:06.676Z,28.60
2017-07-24T11:37:34.241Z,28.60
2017-07-24T11:40:02.608Z,28.70
2017-07-24T11:42:30.171Z,28.70
2017-07-24T11:44:58.838Z,28.70
2017-07-24T11:47:26.452Z,28.70
2017-07-24T11:49:54.106Z,28.80
2017-07-24T11:52:23.214Z,28.80
2017-07-24T11:54:51.923Z,28.80
2017-07-24T11:57:20.058Z,28.90
2017-07-24T11:59:47.908Z,29.00
2017-07-24T12:02:16.236Z,29.10
2017-07-24T12:04:43.858Z,29.00
2017-07-24T12:07:11.406Z,29.00
2017-07-24T12:09:39.345Z,29.10
2017-07-24T12:12:06.921Z,29.00
2017-07-24T12:14:34.519Z,28.90
2017-07-24T12:17:02.135Z,28.80
2017-07-24T12:19:29.688Z,28.60
2017-07-24T12:21:57.638Z,28.50
2017-07-24T12:24:25.232Z,28.40
2017-07-24T12:26:52.804Z,28.20
2017-07-24T12:29:21.210Z,28.00
2017-07-24T12:31:49.182Z,28.00
2017-07-24T12:34:17.685Z,28.00
2017-07-24T12:36:45.248Z,27.80
2017-07-24T12:39:12.840Z,27.60
2017-07-24T12:41:40.949Z,27.40
2017-07-24T12:44:09.149Z,27.10
2017-07-24T12:46:37.144Z,26.90
2017-07-24T12:49:04.973Z,26.70
2017-07-24T12:51:32.549Z,26.50
2017-07-24T12:54:00.171Z,26.30
2017-07-24T12:56:27.749Z,26.20
2017-07-24T12:58:55.756Z,26.00
2017-07-24T13:01:23.321Z,25.90
2017-07-24T13:03:50.889Z,25.70
2017-07-24T13:06:18.701Z,25.60
2017-07-24T13:08:46.306Z,25.40
2017-07-24T13:11:14.418Z,25.30
2017-07-24T13:13:41.966Z,25.20
2017-07-24T13:16:09.525Z,25.10
2017-07-24T13:18:37.896Z,25.10
2017-07-24T13:21:05.527Z,25.10
2017-07-24T13:23:33.478Z,25.20
2017-07-24T13:26:01.060Z,25.30
2017-07-24T13:28:28.654Z,25.50
2017-07-24T13:30:57.041Z,25.60
2017-07-24T13:33:24.592Z,25.60
2017-07-24T13:35:53.961Z,25.60
2017-07-24T13:38:21.565Z,25.50
2017-07-24T13:40:50.831Z,25.50
2017-07-24T13:43:18.977Z,25.50
2017-07-24T13:45:46.531Z,25.40
2017-07-24T13:48:14.423Z,25.30
2017-07-24T13:50:42.668Z,25.10
2017-07-24T13:53:10.319Z,24.90
2017-07-24T13:55:37.970Z,24.80
2017-07-24T13:58:05.535Z,24.70
2017-07-24T14:00:33.568Z,24.70
2017-07-24T14:03:01.905Z,24.70
2017-07-24T14:05:29.455Z,24.70
2017-07-24T14:07:57.074Z,24.70
2017-07-24T14:10:24.634Z,24.70
2017-07-24T14:12:53.457Z,24.70
2017-07-24T14:15:21.959Z,24.70
2017-07-24T14:17:49.512Z,24.70
2017-07-24T14:20:17.166Z,24.80
2017-07-24T14:22:44.722Z,24.90
2017-07-24T14:25:12.836Z,24.90
2017-07-24T14:27:40.398Z,24.90
2017-07-24T14:30:07.985Z,24.90
2017-07-24T14:32:35.592Z,24.90
2017-07-24T14:35:03.190Z,24.90
2017-07-24T14:37:31.090Z,24.80
2017-07-24T14:39:58.969Z,24.80
2017-07-24T14:42:26.564Z,24.70
2017-07-24T14:44:55.492Z,24.50
2017-07-24T14:47:23.128Z,24.50
2017-07-24T14:49:51.444Z,24.50
2017-07-24T14:52:19.024Z,24.40
2017-07-24T14:54:46.592Z,24.40
2017-07-24T14:57:14.200Z,24.40
2017-07-24T14:59:41.781Z,24.40
2017-07-24T15:02:09.847Z,24.40
2017-07-24T15:04:37.418Z,24.40
2017-07-24T15:07:04.991Z,24.40
2017-07-24T15:09:32.622Z,24.30
2017-07-24T15:12:00.189Z,24.20
2017-07-24T15:14:28.059Z,24.20
2017-07-24T15:16:55.625Z,24.10
2017-07-24T15:19:23.279Z,24.10
2017-07-24T15:21:50.898Z,24.00
2017-07-24T15:24:18.476Z,23.90
2017-07-24T15:26:48.292Z,23.80
2017-07-24T15:29:15.871Z,23.80
2017-07-24T15:31:43.432Z,23.90
2017-07-24T15:34:11.048Z,23.90
2017-07-24T15:36:38.625Z,23.80
2017-07-24T15:39:07.274Z,23.90
2017-07-24T15:41:35.525Z,23.80
2017-07-24T15:44:03.115Z,23.90
2017-07-24T15:46:30.760Z,23.90
2017-07-24T15:48:58.360Z,23.90
2017-07-24T15:51:26.442Z,23.80
2017-07-24T15:53:54.024Z,23.70
2017-07-24T15:56:21.615Z,23.70
2017-07-24T15:58:49.270Z,23.60
2017-07-24T16:01:17.042Z,23.40
2017-07-24T16:03:45.146Z,23.40
2017-07-24T16:06:12.773Z,23.30
2017-07-24T16:08:40.342Z,23.30
2017-07-24T16:11:07.953Z,23.20
2017-07-24T16:13:36.305Z,23.00
2017-07-24T16:16:04.289Z,23.00
2017-07-24T16:18:32.625Z,22.80
2017-07-24T16:21:00.189Z,22.80
2017-07-24T16:23:27.878Z,22.60
2017-07-24T16:25:56.239Z,22.30
2017-07-24T16:28:24.096Z,22.20
2017-07-24T16:30:51.638Z,22.10
2017-07-24T16:33:19.202Z,21.90
2017-07-24T16:35:46.873Z,21.70
2017-07-24T16:38:14.621Z,21.40
2017-07-24T16:40:43.355Z,21.30
2017-07-24T16:43:11.753Z,21.10
2017-07-24T16:45:39.353Z,21.00
2017-07-24T16:48:06.945Z,21.00
2017-07-24T16:50:34.502Z,20.80
2017-07-24T16:53:02.482Z,20.70
2017-07-24T16:55:30.773Z,20.60
2017-07-24T16:57:59.103Z,20.30
2017-07-24T17:00:26.715Z,20.30
2017-07-24T17:02:54.295Z,20.20
2017-07-24T17:05:22.411Z,20.20
2017-07-24T17:07:50.008Z,20.10
2017-07-24T17:10:18.122Z,20.00
2017-07-24T17:12:45.807Z,19.90
2017-07-24T17:15:13.384Z,19.90
2017-07-24T17:17:41.334Z,19.80
2017-07-24T17:20:08.934Z,19.80
2017-07-24T17:22:36.499Z,19.80
2017-07-24T17:25:04.994Z,19.80
2017-07-24T17:27:32.583Z,19.80
2017-07-24T17:30:00.687Z,19.80
2017-07-24T17:32:28.276Z,19.90
2017-07-24T17:34:55.881Z,19.90
2017-07-24T17:37:23.514Z,19.90
2017-07-24T17:39:51.113Z,19.90
2017-07-24T17:42:19.086Z,19.90
2017-07-24T17:44:46.652Z,20.00
2017-07-24T17:47:14.222Z,20.00
2017-07-24T17:49:41.908Z,19.90
2017-07-24T17:52:09.467Z,20.00
2017-07-24T17:54:37.330Z,19.90
2017-07-24T17:57:05.713Z,19.90
2017-07-24T17:59:33.286Z,19.90
2017-07-24T18:02:00.990Z,19.90
2017-07-24T18:04:28.556Z,19.80
2017-07-24T18:06:57.262Z,19.60
2017-07-24T18:09:24.850Z,19.60
2017-07-24T18:11:52.437Z,19.50
2017-07-24T18:14:20.066Z,19.50
2017-07-24T18:16:47.672Z,19.50
2017-07-24T18:19:15.855Z,19.40
2017-07-24T18:21:43.441Z,19.40
2017-07-24T18:24:11.815Z,19.30
2017-07-24T18:26:40.524Z,19.30
2017-07-24T18:29:08.217Z,19.30
2017-07-24T18:31:36.107Z,19.30
2017-07-24T18:34:03.674Z,19.30
2017-07-24T18:36:31.256Z,19.20
2017-07-24T18:38:59.686Z,19.20
2017-07-24T18:41:27.291Z,19.20
2017-07-24T18:43:55.182Z,19.20
2017-07-24T18:46:22.948Z,19.20
2017-07-24T18:48:50.858Z,19.10
2017-07-24T18:51:18.463Z,19.10
2017-07-24T18:53:46.809Z,19.10
2017-07-24T18:56:14.721Z,19.10
2017-07-24T18:58:42.271Z,19.10
2017-07-24T19:01:10.613Z,19.10
2017-07-24T19:03:38.386Z,19.00
2017-07-24T19:06:05.998Z,19.00
2017-07-24T19:08:34.144Z,19.00
2017-07-24T19:11:01.868Z,19.00
2017-07-24T19:13:30.224Z,18.90
2017-07-24T19:15:57.927Z,18.90
2017-07-24T19:18:25.489Z,18.90
2017-07-24T19:20:53.413Z,18.90
2017-07-24T19:23:20.990Z,18.90
2017-07-24T19:25:48.579Z,18.90
2017-07-24T19:28:16.198Z,18.80
2017-07-24T19:30:43.833Z,18.80
2017-07-24T19:33:11.769Z,18.80
2017-07-24T19:35:39.354Z,18.80
2017-07-24T19:38:06.964Z,18.90
2017-07-24T19:40:34.572Z,19.00
2017-07-24T19:43:02.188Z,19.00
2017-07-24T19:45:30.074Z,19.10
2017-07-24T19:47:57.673Z,19.10
2017-07-24T19:50:25.243Z,19.00
2017-07-24T19:52:53.011Z,19.00
2017-07-24T19:55:20.602Z,19.00
2017-07-24T19:57:48.571Z,19.00
2017-07-24T20:00:16.377Z,18.90
2017-07-24T20:02:43.998Z,18.90
2017-07-24T20:05:11.637Z,18.90
2017-07-24T20:07:39.238Z,18.90
2017-07-24T20:10:07.596Z,18.90
2017-07-24T20:12:35.277Z,18.90
2017-07-24T20:15:02.871Z,18.80
2017-07-24T20:17:30.671Z,18.80
2017-07-24T20:19:58.271Z,18.70
2017-07-24T20:22:26.428Z,18.70
2017-07-24T20:24:54.122Z,18.70
2017-07-24T20:27:21.858Z,18.60
2017-07-24T20:29:49.485Z,18.60
2017-07-24T20:32:17.122Z,18.70
2017-07-24T20:34:45.157Z,18.60
2017-07-24T20:37:12.727Z,18.60
2017-07-24T20:39:40.382Z,18.50
2017-07-24T20:42:08.067Z,18.50
2017-07-24T20:44:35.775Z,18.50
2017-07-24T20:47:03.734Z,18.50
2017-07-24T20:49:31.285Z,18.40
2017-07-24T20:51:58.824Z,18.40
2017-07-24T20:54:27.133Z,18.40
2017-07-24T20:56:54.695Z,18.40
2017-07-24T20:59:22.631Z,18.40
2017-07-24T21:01:50.187Z,18.30
2017-07-24T21:04:17.777Z,18.30
2017-07-24T21:06:45.379Z,18.20
2017-07-24T21:09:12.938Z,18.10
2017-07-24T21:11:40.913Z,18.00
2017-07-24T21:14:09.246Z,18.00
2017-07-24T21:16:36.829Z,17.90
2017-07-24T21:19:04.474Z,17.90
2017-07-24T21:21:32.188Z,17.90
2017-07-24T21:24:00.578Z,17.80
2017-07-24T21:26:28.840Z,17.80
2017-07-24T21:28:56.408Z,17.80
2017-07-24T21:31:24.799Z,17.70
2017-07-24T21:33:52.377Z,17.70
2017-07-24T21:36:20.381Z,17.70
2017-07-24T21:38:47.953Z,17.70
2017-07-24T21:41:15.511Z,17.70
2017-07-24T21:43:43.113Z,17.70
2017-07-24T21:46:10.814Z,17.80
2017-07-24T21:48:38.715Z,17.80
2017-07-24T21:51:07.053Z,17.70
2017-07-24T21:53:34.580Z,17.70
2017-07-24T21:56:03.048Z,17.70
2017-07-24T21:58:30.622Z,17.70
2017-07-24T22:00:58.665Z,17.70
2017-07-24T22:03:27.004Z,17.70
2017-07-24T22:05:54.592Z,17.60
2017-07-24T22:08:22.227Z,17.60
2017-07-24T22:10:49.817Z,17.70
2017-07-24T22:13:17.774Z,17.60
2017-07-24T22:15:45.333Z,17.60
2017-07-24T22:18:13.056Z,17.60
2017-07-24T22:20:40.896Z,17.70
2017-07-24T22:23:08.490Z,17.70
2017-07-24T22:25:36.498Z,17.80
2017-07-24T22:28:04.056Z,17.80
2017-07-24T22:30:31.635Z,17.80
2017-07-24T22:33:00.011Z,17.80
2017-07-24T22:35:27.572Z,17.80
2017-07-24T22:37:56.242Z,17.70
2017-07-24T22:40:23.801Z,17.70
2017-07-24T22:42:51.362Z,17.70
2017-07-24T22:45:18.972Z,17.60
2017-07-24T22:47:46.523Z,17.60
2017-07-24T22:50:14.529Z,17.60
2017-07-24T22:52:42.094Z,17.60
2017-07-24T22:55:09.673Z,17.60
2017-07-24T22:57:38.060Z,17.60
2017-07-24T23:02:58.577Z,17.50
2017-07-24T23:05:26.145Z,17.50
2017-07-24T23:07:53.713Z,17.40
2017-07-24T23:10:22.076Z,17.40
2017-07-24T23:12:49.645Z,17.30
2017-07-24T23:15:18.337Z,17.30
2017-07-24T23:17:46.655Z,17.30
2017-07-24T23:20:14.190Z,17.30
2017-07-24T23:22:41.799Z,17.30
2017-07-24T23:25:09.370Z,17.20
2017-07-24T23:27:37.440Z,17.20
2017-07-24T23:30:05.061Z,17.20
2017-07-24T23:32:32.642Z,17.10
2017-07-24T23:35:00.230Z,17.10
2017-07-24T23:37:27.904Z,17.10
2017-07-24T23:39:56.588Z,17.00
2017-07-24T23:42:24.917Z,17.00
2017-07-24T23:44:52.487Z,17.00
2017-07-24T23:47:20.073Z,17.00
2017-07-24T23:49:47.640Z,17.00
2017-07-24T23:52:15.502Z,17.00
2017-07-24T23:54:43.069Z,17.00
2017-07-24T23:57:10.629Z,17.00
2017-07-24T23:59:38.996Z,16.90
